sensor_id;sensor_type;location;lat;lon;timestamp;P1;durP1;ratioP1;P2;durP2;ratioP2
7501;SDS011;3792;47.740;7.606;2023-02-13T00:01:21;19.83;;;12.20;;
7501;SDS011;3792;47.740;7.606;2023-02-13T00:03:49;19.80;;;11.90;;
7501;SDS011;3792;47.740;7.606;2023-02-13T00:06:16;16.73;;;10.83;;
7501;SDS011;3792;47.740;7.606;2023-02-13T00:08:43;17.13;;;10.03;;
7501;SDS011;3792;47.740;7.606;2023-02-13T00:11:11;13.70;;;9.60;;
7501;SDS011;3792;47.740;7.606;2023-02-13T00:13:39;14.83;;;9.80;;
7501;SDS011;3792;47.740;7.606;2023-02-13T00:16:06;14.77;;;9.93;;
7501;SDS011;3792;47.740;7.606;2023-02-13T00:18:35;17.67;;;11.30;;
7501;SDS011;3792;47.740;7.606;2023-02-13T00:21:04;19.57;;;12.33;;
7501;SDS011;3792;47.740;7.606;2023-02-13T00:23:33;18.30;;;11.40;;
7501;SDS011;3792;47.740;7.606;2023-02-13T00:26:04;20.70;;;12.13;;
7501;SDS011;3792;47.740;7.606;2023-02-13T00:28:34;14.30;;;10.43;;
7501;SDS011;3792;47.740;7.606;2023-02-13T00:31:02;14.57;;;9.63;;
7501;SDS011;3792;47.740;7.606;2023-02-13T00:33:30;15.17;;;9.70;;
7501;SDS011;3792;47.740;7.606;2023-02-13T00:36:04;13.10;;;9.47;;
7501;SDS011;3792;47.740;7.606;2023-02-13T00:38:32;13.77;;;9.60;;
7501;SDS011;3792;47.740;7.606;2023-02-13T00:41:00;16.50;;;10.43;;
7501;SDS011;3792;47.740;7.606;2023-02-13T00:43:27;14.97;;;9.40;;
7501;SDS011;3792;47.740;7.606;2023-02-13T00:45:56;16.00;;;11.60;;
7501;SDS011;3792;47.740;7.606;2023-02-13T00:48:23;17.03;;;11.33;;
7501;SDS011;3792;47.740;7.606;2023-02-13T00:50:51;16.33;;;10.47;;
7501;SDS011;3792;47.740;7.606;2023-02-13T00:53:18;15.07;;;9.70;;
7501;SDS011;3792;47.740;7.606;2023-02-13T00:55:46;12.53;;;8.83;;
7501;SDS011;3792;47.740;7.606;2023-02-13T00:58:13;13.00;;;8.37;;
7501;SDS011;3792;47.740;7.606;2023-02-13T01:00:41;12.77;;;8.90;;
7501;SDS011;3792;47.740;7.606;2023-02-13T01:03:09;16.63;;;10.60;;
7501;SDS011;3792;47.740;7.606;2023-02-13T01:05:36;28.20;;;15.57;;
7501;SDS011;3792;47.740;7.606;2023-02-13T01:08:03;25.37;;;15.00;;
7501;SDS011;3792;47.740;7.606;2023-02-13T01:10:31;26.23;;;15.27;;
7501;SDS011;3792;47.740;7.606;2023-02-13T01:12:58;14.87;;;10.10;;
7501;SDS011;3792;47.740;7.606;2023-02-13T01:15:25;15.03;;;9.40;;
7501;SDS011;3792;47.740;7.606;2023-02-13T01:17:52;11.37;;;7.70;;
7501;SDS011;3792;47.740;7.606;2023-02-13T01:20:23;12.20;;;8.00;;
7501;SDS011;3792;47.740;7.606;2023-02-13T01:22:50;12.40;;;9.20;;
7501;SDS011;3792;47.740;7.606;2023-02-13T01:25:17;11.77;;;9.27;;
7501;SDS011;3792;47.740;7.606;2023-02-13T01:27:44;12.57;;;9.37;;
7501;SDS011;3792;47.740;7.606;2023-02-13T01:30:12;12.23;;;8.70;;
7501;SDS011;3792;47.740;7.606;2023-02-13T01:32:44;10.87;;;8.13;;
7501;SDS011;3792;47.740;7.606;2023-02-13T01:35:12;10.47;;;7.70;;
7501;SDS011;3792;47.740;7.606;2023-02-13T01:37:42;11.87;;;7.70;;
7501;SDS011;3792;47.740;7.606;2023-02-13T01:40:10;12.13;;;8.30;;
7501;SDS011;3792;47.740;7.606;2023-02-13T01:42:39;13.30;;;9.70;;
7501;SDS011;3792;47.740;7.606;2023-02-13T01:45:16;15.20;;;11.00;;
7501;SDS011;3792;47.740;7.606;2023-02-13T01:47:48;14.23;;;9.73;;
7501;SDS011;3792;47.740;7.606;2023-02-13T01:50:20;12.13;;;8.67;;
7501;SDS011;3792;47.740;7.606;2023-02-13T01:52:53;10.07;;;7.27;;
7501;SDS011;3792;47.740;7.606;2023-02-13T01:55:22;10.97;;;7.53;;
7501;SDS011;3792;47.740;7.606;2023-02-13T01:57:52;10.20;;;7.20;;
7501;SDS011;3792;47.740;7.606;2023-02-13T02:00:36;12.13;;;7.93;;
7501;SDS011;3792;47.740;7.606;2023-02-13T02:03:06;9.63;;;7.57;;
7501;SDS011;3792;47.740;7.606;2023-02-13T02:05:36;11.37;;;8.53;;
7501;SDS011;3792;47.740;7.606;2023-02-13T02:08:06;12.03;;;8.37;;
7501;SDS011;3792;47.740;7.606;2023-02-13T02:10:35;14.40;;;9.67;;
7501;SDS011;3792;47.740;7.606;2023-02-13T02:13:04;12.13;;;8.03;;
7501;SDS011;3792;47.740;7.606;2023-02-13T02:15:34;11.83;;;8.23;;
7501;SDS011;3792;47.740;7.606;2023-02-13T02:18:01;10.77;;;8.00;;
7501;SDS011;3792;47.740;7.606;2023-02-13T02:20:37;11.93;;;8.20;;
7501;SDS011;3792;47.740;7.606;2023-02-13T02:23:36;13.07;;;9.10;;
7501;SDS011;3792;47.740;7.606;2023-02-13T02:26:23;12.03;;;9.30;;
7501;SDS011;3792;47.740;7.606;2023-02-13T02:29:17;14.20;;;8.93;;
7501;SDS011;3792;47.740;7.606;2023-02-13T02:32:09;13.30;;;8.57;;
7501;SDS011;3792;47.740;7.606;2023-02-13T02:34:59;10.30;;;8.03;;
7501;SDS011;3792;47.740;7.606;2023-02-13T02:37:38;11.10;;;8.20;;
7501;SDS011;3792;47.740;7.606;2023-02-13T02:40:19;11.53;;;8.10;;
7501;SDS011;3792;47.740;7.606;2023-02-13T02:42:56;10.40;;;7.50;;
7501;SDS011;3792;47.740;7.606;2023-02-13T02:45:33;12.93;;;7.83;;
7501;SDS011;3792;47.740;7.606;2023-02-13T02:48:06;10.47;;;7.63;;
7501;SDS011;3792;47.740;7.606;2023-02-13T02:50:56;12.13;;;8.00;;
7501;SDS011;3792;47.740;7.606;2023-02-13T02:53:30;11.10;;;8.23;;
7501;SDS011;3792;47.740;7.606;2023-02-13T02:56:05;10.60;;;7.93;;
7501;SDS011;3792;47.740;7.606;2023-02-13T02:58:37;12.23;;;7.73;;
7501;SDS011;3792;47.740;7.606;2023-02-13T03:01:27;12.33;;;8.10;;
7501;SDS011;3792;47.740;7.606;2023-02-13T03:04:16;10.07;;;7.33;;
7501;SDS011;3792;47.740;7.606;2023-02-13T03:07:04;11.60;;;8.17;;
7501;SDS011;3792;47.740;7.606;2023-02-13T03:09:35;11.83;;;7.97;;
7501;SDS011;3792;47.740;7.606;2023-02-13T03:12:23;13.47;;;8.70;;
7501;SDS011;3792;47.740;7.606;2023-02-13T03:15:13;13.63;;;8.47;;
7501;SDS011;3792;47.740;7.606;2023-02-13T03:17:40;15.10;;;9.27;;
7501;SDS011;3792;47.740;7.606;2023-02-13T03:20:31;12.43;;;8.73;;
7501;SDS011;3792;47.740;7.606;2023-02-13T03:23:29;12.73;;;9.17;;
7501;SDS011;3792;47.740;7.606;2023-02-13T03:26:06;12.67;;;8.70;;
7501;SDS011;3792;47.740;7.606;2023-02-13T03:29:00;17.63;;;11.50;;
7501;SDS011;3792;47.740;7.606;2023-02-13T03:31:51;30.67;;;15.43;;
7501;SDS011;3792;47.740;7.606;2023-02-13T03:34:26;28.37;;;16.17;;
7501;SDS011;3792;47.740;7.606;2023-02-13T03:37:22;21.37;;;12.37;;
7501;SDS011;3792;47.740;7.606;2023-02-13T03:40:14;21.63;;;13.07;;
7501;SDS011;3792;47.740;7.606;2023-02-13T03:42:46;27.20;;;15.73;;
7501;SDS011;3792;47.740;7.606;2023-02-13T03:45:18;26.73;;;15.93;;
7501;SDS011;3792;47.740;7.606;2023-02-13T03:48:05;21.10;;;12.33;;
7501;SDS011;3792;47.740;7.606;2023-02-13T03:50:55;18.77;;;11.27;;
7501;SDS011;3792;47.740;7.606;2023-02-13T03:53:23;18.53;;;12.10;;
7501;SDS011;3792;47.740;7.606;2023-02-13T03:55:53;17.40;;;12.70;;
7501;SDS011;3792;47.740;7.606;2023-02-13T03:58:42;18.90;;;10.47;;
7501;SDS011;3792;47.740;7.606;2023-02-13T04:01:31;17.20;;;11.30;;
7501;SDS011;3792;47.740;7.606;2023-02-13T04:04:03;17.73;;;11.37;;
7501;SDS011;3792;47.740;7.606;2023-02-13T04:06:35;19.47;;;11.23;;
7501;SDS011;3792;47.740;7.606;2023-02-13T04:09:07;16.50;;;10.83;;
7501;SDS011;3792;47.740;7.606;2023-02-13T04:11:34;17.23;;;11.23;;
7501;SDS011;3792;47.740;7.606;2023-02-13T04:14:07;16.03;;;10.50;;
7501;SDS011;3792;47.740;7.606;2023-02-13T04:16:41;15.47;;;10.23;;
7501;SDS011;3792;47.740;7.606;2023-02-13T04:19:11;17.37;;;10.93;;
7501;SDS011;3792;47.740;7.606;2023-02-13T04:21:40;16.53;;;10.63;;
7501;SDS011;3792;47.740;7.606;2023-02-13T04:24:08;14.57;;;10.00;;
7501;SDS011;3792;47.740;7.606;2023-02-13T04:26:37;14.40;;;10.27;;
7501;SDS011;3792;47.740;7.606;2023-02-13T04:29:06;14.80;;;10.33;;
7501;SDS011;3792;47.740;7.606;2023-02-13T04:31:34;15.83;;;11.13;;
7501;SDS011;3792;47.740;7.606;2023-02-13T04:34:01;13.37;;;9.83;;
7501;SDS011;3792;47.740;7.606;2023-02-13T04:36:28;18.57;;;12.17;;
7501;SDS011;3792;47.740;7.606;2023-02-13T04:38:55;16.23;;;10.80;;
7501;SDS011;3792;47.740;7.606;2023-02-13T04:41:24;16.33;;;10.80;;
7501;SDS011;3792;47.740;7.606;2023-02-13T04:43:51;15.83;;;11.47;;
7501;SDS011;3792;47.740;7.606;2023-02-13T04:46:18;15.83;;;10.80;;
7501;SDS011;3792;47.740;7.606;2023-02-13T04:48:45;16.53;;;11.10;;
7501;SDS011;3792;47.740;7.606;2023-02-13T04:51:13;14.53;;;10.37;;
7501;SDS011;3792;47.740;7.606;2023-02-13T04:53:40;16.07;;;10.83;;
7501;SDS011;3792;47.740;7.606;2023-02-13T04:56:07;17.57;;;10.73;;
7501;SDS011;3792;47.740;7.606;2023-02-13T04:58:35;16.23;;;11.50;;
7501;SDS011;3792;47.740;7.606;2023-02-13T05:01:09;16.13;;;10.73;;
7501;SDS011;3792;47.740;7.606;2023-02-13T05:03:37;19.53;;;10.90;;
7501;SDS011;3792;47.740;7.606;2023-02-13T05:06:04;17.00;;;11.10;;
7501;SDS011;3792;47.740;7.606;2023-02-13T05:08:31;17.83;;;11.50;;
7501;SDS011;3792;47.740;7.606;2023-02-13T05:10:58;19.67;;;11.93;;
7501;SDS011;3792;47.740;7.606;2023-02-13T05:13:25;17.87;;;11.63;;
7501;SDS011;3792;47.740;7.606;2023-02-13T05:15:54;15.90;;;11.00;;
7501;SDS011;3792;47.740;7.606;2023-02-13T05:18:21;18.40;;;11.77;;
7501;SDS011;3792;47.740;7.606;2023-02-13T05:20:48;15.93;;;11.37;;
7501;SDS011;3792;47.740;7.606;2023-02-13T05:23:35;20.00;;;13.67;;
7501;SDS011;3792;47.740;7.606;2023-02-13T05:26:01;17.00;;;11.40;;
7501;SDS011;3792;47.740;7.606;2023-02-13T05:28:29;16.80;;;12.13;;
7501;SDS011;3792;47.740;7.606;2023-02-13T05:31:14;19.43;;;12.53;;
7501;SDS011;3792;47.740;7.606;2023-02-13T05:33:41;17.63;;;11.03;;
7501;SDS011;3792;47.740;7.606;2023-02-13T05:36:09;13.50;;;9.67;;
7501;SDS011;3792;47.740;7.606;2023-02-13T05:38:35;15.37;;;11.10;;
7501;SDS011;3792;47.740;7.606;2023-02-13T05:41:03;34.90;;;20.40;;
7501;SDS011;3792;47.740;7.606;2023-02-13T05:43:30;36.03;;;19.37;;
7501;SDS011;3792;47.740;7.606;2023-02-13T05:46:00;23.90;;;14.60;;
7501;SDS011;3792;47.740;7.606;2023-02-13T05:48:30;24.03;;;14.07;;
7501;SDS011;3792;47.740;7.606;2023-02-13T05:50:57;23.37;;;13.93;;
7501;SDS011;3792;47.740;7.606;2023-02-13T05:53:24;20.93;;;13.90;;
7501;SDS011;3792;47.740;7.606;2023-02-13T05:55:51;21.93;;;14.03;;
7501;SDS011;3792;47.740;7.606;2023-02-13T05:58:19;20.33;;;13.17;;
7501;SDS011;3792;47.740;7.606;2023-02-13T06:00:46;19.47;;;13.17;;
7501;SDS011;3792;47.740;7.606;2023-02-13T06:03:13;21.77;;;13.63;;
7501;SDS011;3792;47.740;7.606;2023-02-13T06:05:42;18.63;;;12.17;;
7501;SDS011;3792;47.740;7.606;2023-02-13T06:08:09;18.13;;;12.13;;
7501;SDS011;3792;47.740;7.606;2023-02-13T06:10:36;20.77;;;12.73;;
7501;SDS011;3792;47.740;7.606;2023-02-13T06:13:03;19.63;;;12.70;;
7501;SDS011;3792;47.740;7.606;2023-02-13T06:15:30;18.77;;;12.10;;
7501;SDS011;3792;47.740;7.606;2023-02-13T06:17:57;16.20;;;11.93;;
7501;SDS011;3792;47.740;7.606;2023-02-13T06:20:25;19.67;;;13.47;;
7501;SDS011;3792;47.740;7.606;2023-02-13T06:22:53;17.30;;;12.80;;
7501;SDS011;3792;47.740;7.606;2023-02-13T06:25:21;18.57;;;11.30;;
7501;SDS011;3792;47.740;7.606;2023-02-13T06:27:48;20.60;;;12.83;;
7501;SDS011;3792;47.740;7.606;2023-02-13T06:30:15;23.43;;;14.37;;
7501;SDS011;3792;47.740;7.606;2023-02-13T06:32:43;21.50;;;13.20;;
7501;SDS011;3792;47.740;7.606;2023-02-13T06:35:13;18.80;;;12.50;;
7501;SDS011;3792;47.740;7.606;2023-02-13T06:37:40;22.20;;;14.03;;
7501;SDS011;3792;47.740;7.606;2023-02-13T06:40:11;22.00;;;13.77;;
7501;SDS011;3792;47.740;7.606;2023-02-13T06:42:42;22.30;;;14.00;;
7501;SDS011;3792;47.740;7.606;2023-02-13T06:45:10;21.70;;;13.50;;
7501;SDS011;3792;47.740;7.606;2023-02-13T06:47:39;20.53;;;13.63;;
7501;SDS011;3792;47.740;7.606;2023-02-13T06:50:07;25.20;;;16.07;;
7501;SDS011;3792;47.740;7.606;2023-02-13T06:52:35;19.97;;;12.37;;
7501;SDS011;3792;47.740;7.606;2023-02-13T06:55:02;19.27;;;13.23;;
7501;SDS011;3792;47.740;7.606;2023-02-13T06:57:31;20.23;;;12.60;;
7501;SDS011;3792;47.740;7.606;2023-02-13T06:59:58;18.90;;;12.27;;
7501;SDS011;3792;47.740;7.606;2023-02-13T07:02:29;20.90;;;14.47;;
7501;SDS011;3792;47.740;7.606;2023-02-13T07:04:56;21.87;;;13.73;;
7501;SDS011;3792;47.740;7.606;2023-02-13T07:07:23;21.70;;;13.80;;
7501;SDS011;3792;47.740;7.606;2023-02-13T07:09:50;18.20;;;12.30;;
7501;SDS011;3792;47.740;7.606;2023-02-13T07:12:17;19.47;;;12.40;;
7501;SDS011;3792;47.740;7.606;2023-02-13T07:14:46;20.70;;;12.70;;
7501;SDS011;3792;47.740;7.606;2023-02-13T07:17:13;20.40;;;13.50;;
7501;SDS011;3792;47.740;7.606;2023-02-13T07:19:40;19.10;;;12.43;;
7501;SDS011;3792;47.740;7.606;2023-02-13T07:22:07;18.97;;;12.20;;
7501;SDS011;3792;47.740;7.606;2023-02-13T07:24:34;19.50;;;13.03;;
7501;SDS011;3792;47.740;7.606;2023-02-13T07:27:02;22.20;;;12.77;;
7501;SDS011;3792;47.740;7.606;2023-02-13T07:29:29;27.00;;;15.43;;
7501;SDS011;3792;47.740;7.606;2023-02-13T07:31:58;26.87;;;15.07;;
7501;SDS011;3792;47.740;7.606;2023-02-13T07:34:25;25.13;;;15.10;;
7501;SDS011;3792;47.740;7.606;2023-02-13T07:36:52;26.20;;;15.73;;
7501;SDS011;3792;47.740;7.606;2023-02-13T07:39:19;25.37;;;17.23;;
7501;SDS011;3792;47.740;7.606;2023-02-13T07:41:46;20.47;;;14.27;;
7501;SDS011;3792;47.740;7.606;2023-02-13T07:44:13;21.30;;;14.33;;
7501;SDS011;3792;47.740;7.606;2023-02-13T07:46:40;23.70;;;14.30;;
7501;SDS011;3792;47.740;7.606;2023-02-13T07:49:08;20.07;;;12.87;;
7501;SDS011;3792;47.740;7.606;2023-02-13T07:51:35;19.83;;;12.83;;
7501;SDS011;3792;47.740;7.606;2023-02-13T07:54:02;18.30;;;11.73;;
7501;SDS011;3792;47.740;7.606;2023-02-13T07:56:29;18.50;;;12.37;;
7501;SDS011;3792;47.740;7.606;2023-02-13T07:58:56;20.27;;;13.70;;
7501;SDS011;3792;47.740;7.606;2023-02-13T08:01:23;19.63;;;13.50;;
7501;SDS011;3792;47.740;7.606;2023-02-13T08:03:50;31.40;;;18.47;;
7501;SDS011;3792;47.740;7.606;2023-02-13T08:06:19;29.80;;;17.93;;
7501;SDS011;3792;47.740;7.606;2023-02-13T08:08:46;24.23;;;16.40;;
7501;SDS011;3792;47.740;7.606;2023-02-13T08:11:34;25.10;;;16.27;;
7501;SDS011;3792;47.740;7.606;2023-02-13T08:14:19;24.93;;;14.77;;
7501;SDS011;3792;47.740;7.606;2023-02-13T08:16:46;24.97;;;16.40;;
7501;SDS011;3792;47.740;7.606;2023-02-13T08:19:13;24.03;;;15.97;;
7501;SDS011;3792;47.740;7.606;2023-02-13T08:21:41;24.70;;;16.07;;
7501;SDS011;3792;47.740;7.606;2023-02-13T08:24:10;25.33;;;18.07;;
7501;SDS011;3792;47.740;7.606;2023-02-13T08:26:38;27.03;;;17.73;;
7501;SDS011;3792;47.740;7.606;2023-02-13T08:29:05;25.13;;;16.93;;
7501;SDS011;3792;47.740;7.606;2023-02-13T08:31:32;24.77;;;16.17;;
7501;SDS011;3792;47.740;7.606;2023-02-13T08:33:59;21.83;;;15.77;;
7501;SDS011;3792;47.740;7.606;2023-02-13T08:36:26;25.50;;;15.63;;
7501;SDS011;3792;47.740;7.606;2023-02-13T08:38:55;26.87;;;18.10;;
7501;SDS011;3792;47.740;7.606;2023-02-13T08:41:22;30.73;;;20.30;;
7501;SDS011;3792;47.740;7.606;2023-02-13T08:43:49;27.60;;;20.00;;
7501;SDS011;3792;47.740;7.606;2023-02-13T08:46:16;26.40;;;19.87;;
7501;SDS011;3792;47.740;7.606;2023-02-13T08:48:43;38.73;;;25.63;;
7501;SDS011;3792;47.740;7.606;2023-02-13T08:51:11;56.60;;;34.03;;
7501;SDS011;3792;47.740;7.606;2023-02-13T08:53:39;63.63;;;38.93;;
7501;SDS011;3792;47.740;7.606;2023-02-13T08:56:08;51.47;;;33.77;;
7501;SDS011;3792;47.740;7.606;2023-02-13T08:58:36;51.70;;;32.60;;
7501;SDS011;3792;47.740;7.606;2023-02-13T09:01:04;52.03;;;32.30;;
7501;SDS011;3792;47.740;7.606;2023-02-13T09:03:31;45.20;;;29.37;;
7501;SDS011;3792;47.740;7.606;2023-02-13T09:05:59;45.53;;;31.20;;
7501;SDS011;3792;47.740;7.606;2023-02-13T09:08:26;46.47;;;32.50;;
7501;SDS011;3792;47.740;7.606;2023-02-13T09:10:56;38.60;;;27.47;;
7501;SDS011;3792;47.740;7.606;2023-02-13T09:13:27;37.87;;;24.97;;
7501;SDS011;3792;47.740;7.606;2023-02-13T09:15:56;36.57;;;23.43;;
7501;SDS011;3792;47.740;7.606;2023-02-13T09:18:24;33.40;;;22.17;;
7501;SDS011;3792;47.740;7.606;2023-02-13T09:20:56;38.50;;;24.37;;
7501;SDS011;3792;47.740;7.606;2023-02-13T09:23:24;41.20;;;31.10;;
7501;SDS011;3792;47.740;7.606;2023-02-13T09:25:51;51.57;;;37.83;;
7501;SDS011;3792;47.740;7.606;2023-02-13T09:28:18;49.70;;;36.03;;
7501;SDS011;3792;47.740;7.606;2023-02-13T09:30:47;75.60;;;39.77;;
7501;SDS011;3792;47.740;7.606;2023-02-13T09:33:14;70.93;;;39.90;;
7501;SDS011;3792;47.740;7.606;2023-02-13T09:35:41;79.17;;;42.07;;
7501;SDS011;3792;47.740;7.606;2023-02-13T09:38:09;49.63;;;30.00;;
7501;SDS011;3792;47.740;7.606;2023-02-13T09:40:38;46.87;;;28.63;;
7501;SDS011;3792;47.740;7.606;2023-02-13T09:43:12;49.60;;;28.63;;
7501;SDS011;3792;47.740;7.606;2023-02-13T09:45:43;64.37;;;32.33;;
7501;SDS011;3792;47.740;7.606;2023-02-13T09:48:16;50.97;;;29.80;;
7501;SDS011;3792;47.740;7.606;2023-02-13T09:50:46;42.43;;;26.10;;
7501;SDS011;3792;47.740;7.606;2023-02-13T09:53:16;37.53;;;23.40;;
7501;SDS011;3792;47.740;7.606;2023-02-13T09:55:48;40.80;;;25.07;;
7501;SDS011;3792;47.740;7.606;2023-02-13T09:58:26;39.07;;;23.57;;
7501;SDS011;3792;47.740;7.606;2023-02-13T10:01:02;42.40;;;25.63;;
7501;SDS011;3792;47.740;7.606;2023-02-13T10:03:33;40.67;;;23.90;;
7501;SDS011;3792;47.740;7.606;2023-02-13T10:06:07;38.63;;;22.90;;
7501;SDS011;3792;47.740;7.606;2023-02-13T10:08:48;45.07;;;26.63;;
7501;SDS011;3792;47.740;7.606;2023-02-13T10:11:27;39.27;;;25.07;;
7501;SDS011;3792;47.740;7.606;2023-02-13T10:14:10;46.30;;;26.77;;
7501;SDS011;3792;47.740;7.606;2023-02-13T10:16:42;43.23;;;26.03;;
7501;SDS011;3792;47.740;7.606;2023-02-13T10:19:15;44.80;;;27.53;;
7501;SDS011;3792;47.740;7.606;2023-02-13T10:21:52;42.30;;;25.33;;
7501;SDS011;3792;47.740;7.606;2023-02-13T10:24:26;36.73;;;24.10;;
7501;SDS011;3792;47.740;7.606;2023-02-13T10:26:59;37.87;;;25.03;;
7501;SDS011;3792;47.740;7.606;2023-02-13T10:29:35;41.67;;;24.33;;
7501;SDS011;3792;47.740;7.606;2023-02-13T10:32:26;39.90;;;24.90;;
7501;SDS011;3792;47.740;7.606;2023-02-13T10:34:58;37.60;;;23.27;;
7501;SDS011;3792;47.740;7.606;2023-02-13T10:37:30;34.00;;;22.70;;
7501;SDS011;3792;47.740;7.606;2023-02-13T10:39:57;38.40;;;25.43;;
7501;SDS011;3792;47.740;7.606;2023-02-13T10:42:26;36.00;;;24.83;;
7501;SDS011;3792;47.740;7.606;2023-02-13T10:45:04;38.27;;;24.87;;
7501;SDS011;3792;47.740;7.606;2023-02-13T10:47:48;34.40;;;22.77;;
7501;SDS011;3792;47.740;7.606;2023-02-13T10:50:25;34.40;;;22.40;;
7501;SDS011;3792;47.740;7.606;2023-02-13T10:53:03;35.17;;;23.67;;
7501;SDS011;3792;47.740;7.606;2023-02-13T10:58:25;36.80;;;23.63;;
7501;SDS011;3792;47.740;7.606;2023-02-13T11:01:01;37.87;;;23.70;;
7501;SDS011;3792;47.740;7.606;2023-02-13T11:03:32;38.50;;;24.70;;
7501;SDS011;3792;47.740;7.606;2023-02-13T11:06:04;37.77;;;24.30;;
7501;SDS011;3792;47.740;7.606;2023-02-13T11:08:33;37.63;;;24.97;;
7501;SDS011;3792;47.740;7.606;2023-02-13T11:11:06;33.30;;;23.20;;
7501;SDS011;3792;47.740;7.606;2023-02-13T11:13:58;40.47;;;24.90;;
7501;SDS011;3792;47.740;7.606;2023-02-13T11:16:38;35.63;;;23.97;;
7501;SDS011;3792;47.740;7.606;2023-02-13T11:19:13;35.87;;;23.90;;
7501;SDS011;3792;47.740;7.606;2023-02-13T11:21:44;34.60;;;23.53;;
7501;SDS011;3792;47.740;7.606;2023-02-13T11:24:20;35.33;;;23.57;;
7501;SDS011;3792;47.740;7.606;2023-02-13T11:26:50;29.67;;;22.40;;
7501;SDS011;3792;47.740;7.606;2023-02-13T11:29:21;33.17;;;21.50;;
7501;SDS011;3792;47.740;7.606;2023-02-13T11:32:00;34.90;;;23.07;;
7501;SDS011;3792;47.740;7.606;2023-02-13T11:34:31;32.30;;;22.17;;
7501;SDS011;3792;47.740;7.606;2023-02-13T11:39:49;33.97;;;22.60;;
7501;SDS011;3792;47.740;7.606;2023-02-13T11:42:19;34.30;;;22.90;;
7501;SDS011;3792;47.740;7.606;2023-02-13T11:44:57;33.63;;;23.60;;
7501;SDS011;3792;47.740;7.606;2023-02-13T11:47:32;31.10;;;22.73;;
7501;SDS011;3792;47.740;7.606;2023-02-13T11:50:01;32.33;;;23.07;;
7501;SDS011;3792;47.740;7.606;2023-02-13T11:52:31;36.30;;;24.17;;
7501;SDS011;3792;47.740;7.606;2023-02-13T11:55:00;36.43;;;24.80;;
7501;SDS011;3792;47.740;7.606;2023-02-13T11:57:30;43.70;;;28.03;;
7501;SDS011;3792;47.740;7.606;2023-02-13T11:59:59;36.87;;;26.23;;
7501;SDS011;3792;47.740;7.606;2023-02-13T12:02:47;38.83;;;26.10;;
7501;SDS011;3792;47.740;7.606;2023-02-13T12:05:16;34.83;;;23.37;;
7501;SDS011;3792;47.740;7.606;2023-02-13T12:07:46;41.30;;;27.43;;
7501;SDS011;3792;47.740;7.606;2023-02-13T12:10:18;37.83;;;24.03;;
7501;SDS011;3792;47.740;7.606;2023-02-13T12:12:50;33.07;;;22.30;;
7501;SDS011;3792;47.740;7.606;2023-02-13T12:15:20;32.30;;;22.73;;
7501;SDS011;3792;47.740;7.606;2023-02-13T12:17:53;29.83;;;21.47;;
7501;SDS011;3792;47.740;7.606;2023-02-13T12:20:32;30.33;;;21.17;;
7501;SDS011;3792;47.740;7.606;2023-02-13T12:23:11;29.80;;;22.57;;
7501;SDS011;3792;47.740;7.606;2023-02-13T12:25:52;32.07;;;22.53;;
7501;SDS011;3792;47.740;7.606;2023-02-13T12:28:52;30.90;;;21.83;;
7501;SDS011;3792;47.740;7.606;2023-02-13T12:34:24;31.43;;;20.93;;
7501;SDS011;3792;47.740;7.606;2023-02-13T12:37:08;31.73;;;21.37;;
7501;SDS011;3792;47.740;7.606;2023-02-13T12:39:48;33.07;;;20.87;;
7501;SDS011;3792;47.740;7.606;2023-02-13T12:42:31;30.17;;;22.50;;
7501;SDS011;3792;47.740;7.606;2023-02-13T12:45:10;29.53;;;21.27;;
7501;SDS011;3792;47.740;7.606;2023-02-13T12:47:56;28.83;;;21.03;;
7501;SDS011;3792;47.740;7.606;2023-02-13T12:50:35;29.30;;;22.13;;
7501;SDS011;3792;47.740;7.606;2023-02-13T12:53:12;33.33;;;21.97;;
7501;SDS011;3792;47.740;7.606;2023-02-13T12:55:53;30.93;;;21.10;;
7501;SDS011;3792;47.740;7.606;2023-02-13T13:01:37;30.97;;;22.13;;
7501;SDS011;3792;47.740;7.606;2023-02-13T13:04:16;30.33;;;21.77;;
7501;SDS011;3792;47.740;7.606;2023-02-13T13:06:56;27.77;;;21.27;;
7501;SDS011;3792;47.740;7.606;2023-02-13T13:12:35;35.70;;;22.50;;
7501;SDS011;3792;47.740;7.606;2023-02-13T13:15:10;28.93;;;20.80;;
7501;SDS011;3792;47.740;7.606;2023-02-13T13:17:48;25.47;;;20.53;;
7501;SDS011;3792;47.740;7.606;2023-02-13T13:20:32;29.97;;;21.30;;
7501;SDS011;3792;47.740;7.606;2023-02-13T13:23:35;29.50;;;21.47;;
7501;SDS011;3792;47.740;7.606;2023-02-13T13:26:12;26.63;;;20.47;;
7501;SDS011;3792;47.740;7.606;2023-02-13T13:28:49;29.97;;;22.03;;
7501;SDS011;3792;47.740;7.606;2023-02-13T13:31:19;30.03;;;22.53;;
7501;SDS011;3792;47.740;7.606;2023-02-13T13:33:50;30.27;;;21.90;;
7501;SDS011;3792;47.740;7.606;2023-02-13T13:36:32;26.63;;;20.10;;
7501;SDS011;3792;47.740;7.606;2023-02-13T13:39:05;26.80;;;20.47;;
7501;SDS011;3792;47.740;7.606;2023-02-13T13:41:45;26.17;;;20.93;;
7501;SDS011;3792;47.740;7.606;2023-02-13T13:44:39;27.27;;;21.07;;
7501;SDS011;3792;47.740;7.606;2023-02-13T13:47:21;29.03;;;21.97;;
7501;SDS011;3792;47.740;7.606;2023-02-13T13:49:58;30.33;;;21.73;;
7501;SDS011;3792;47.740;7.606;2023-02-13T13:52:30;29.13;;;21.67;;
7501;SDS011;3792;47.740;7.606;2023-02-13T13:54:59;25.90;;;21.67;;
7501;SDS011;3792;47.740;7.606;2023-02-13T13:57:57;26.03;;;21.23;;
7501;SDS011;3792;47.740;7.606;2023-02-13T14:00:28;25.87;;;20.23;;
7501;SDS011;3792;47.740;7.606;2023-02-13T14:03:12;25.20;;;19.63;;
7501;SDS011;3792;47.740;7.606;2023-02-13T14:05:58;28.27;;;20.87;;
7501;SDS011;3792;47.740;7.606;2023-02-13T14:11:24;25.33;;;20.13;;
7501;SDS011;3792;47.740;7.606;2023-02-13T14:20:34;25.27;;;20.47;;
7501;SDS011;3792;47.740;7.606;2023-02-13T14:23:18;25.60;;;20.00;;
7501;SDS011;3792;47.740;7.606;2023-02-13T14:26:09;25.37;;;20.40;;
7501;SDS011;3792;47.740;7.606;2023-02-13T14:28:53;22.97;;;19.27;;
7501;SDS011;3792;47.740;7.606;2023-02-13T14:31:24;22.63;;;19.07;;
7501;SDS011;3792;47.740;7.606;2023-02-13T14:33:55;24.77;;;19.10;;
7501;SDS011;3792;47.740;7.606;2023-02-13T14:36:27;24.60;;;19.20;;
7501;SDS011;3792;47.740;7.606;2023-02-13T14:38:58;25.00;;;19.83;;
7501;SDS011;3792;47.740;7.606;2023-02-13T14:41:41;23.97;;;18.37;;
7501;SDS011;3792;47.740;7.606;2023-02-13T14:44:15;24.27;;;18.87;;
7501;SDS011;3792;47.740;7.606;2023-02-13T14:46:45;23.37;;;19.63;;
7501;SDS011;3792;47.740;7.606;2023-02-13T14:49:14;25.03;;;19.37;;
7501;SDS011;3792;47.740;7.606;2023-02-13T14:51:47;23.17;;;18.83;;
7501;SDS011;3792;47.740;7.606;2023-02-13T14:54:19;24.13;;;19.37;;
7501;SDS011;3792;47.740;7.606;2023-02-13T14:56:53;23.77;;;19.57;;
7501;SDS011;3792;47.740;7.606;2023-02-13T14:59:30;23.17;;;18.27;;
7501;SDS011;3792;47.740;7.606;2023-02-13T15:02:04;21.77;;;18.63;;
7501;SDS011;3792;47.740;7.606;2023-02-13T15:04:43;22.87;;;18.53;;
7501;SDS011;3792;47.740;7.606;2023-02-13T15:07:15;21.33;;;18.23;;
7501;SDS011;3792;47.740;7.606;2023-02-13T15:09:47;22.97;;;18.57;;
7501;SDS011;3792;47.740;7.606;2023-02-13T15:12:28;21.40;;;18.20;;
7501;SDS011;3792;47.740;7.606;2023-02-13T15:14:56;23.03;;;17.97;;
7501;SDS011;3792;47.740;7.606;2023-02-13T15:17:26;21.57;;;17.20;;
7501;SDS011;3792;47.740;7.606;2023-02-13T15:19:58;23.13;;;17.13;;
7501;SDS011;3792;47.740;7.606;2023-02-13T15:22:33;22.63;;;17.40;;
7501;SDS011;3792;47.740;7.606;2023-02-13T15:25:02;20.53;;;17.27;;
7501;SDS011;3792;47.740;7.606;2023-02-13T15:27:32;21.77;;;17.93;;
7501;SDS011;3792;47.740;7.606;2023-02-13T15:30:15;20.17;;;16.20;;
7501;SDS011;3792;47.740;7.606;2023-02-13T15:32:54;21.47;;;16.90;;
7501;SDS011;3792;47.740;7.606;2023-02-13T15:35:59;21.63;;;17.13;;
7501;SDS011;3792;47.740;7.606;2023-02-13T15:38:29;20.13;;;16.50;;
7501;SDS011;3792;47.740;7.606;2023-02-13T15:41:00;29.33;;;20.63;;
7501;SDS011;3792;47.740;7.606;2023-02-13T15:43:31;25.70;;;20.03;;
7501;SDS011;3792;47.740;7.606;2023-02-13T15:46:00;28.80;;;21.43;;
7501;SDS011;3792;47.740;7.606;2023-02-13T15:48:30;25.43;;;20.73;;